Port Clements, Canada
Current Conditions -  °F | °C
As of 8:07 AM on Thursday 30 Oct 2014 (Local Time) from CZMT Reporting Station
Moderate Rain Moderate Rain  
Wind Chill: 41°   Ceiling: 600
Heat Index: 45°   Visibility: 12mi
Dew Point: 45°   Wind: 7mph
Humidity: 100%   Direction: 310°NW
Pressure: 29.45"   Gusts: NA
Location:  53.68°N, 132.17°W
Report Text: CZMT 301507Z 31006KT 12SM RA OVC006 07/07 A2945 RMK ST8 CIG VRB 5-7 SLP974
Loading
Personal Weather Stations






























Interactive Weather Map
Tropical Storm Tracking
New forecast layout! Learn more

10-Day Weather Forecast

Advertisements
Track Severe Weather on mobile